Strona główna
METAR-TAF:

METAR-TAF

Lotnisko :

Port Moresby, Papua-Nowa Gwinea

Port lotniczy Port Moresby

Szerokość geograficzna: 09-26S, Długość geograficzna: 147-13E, wysokość: 38 m

Aktualna obserwacja pogody

Raport powstał 6 godziny i 5 minut temu, godzina 13:00 UTC
Wiatr 9 kt od wschodnio-południowy wschód
Temperatura 26°C
Wilgotność 94%
Ciśnienie 1010 hPa
Widzialność 10 km lub więcej
Mało chmury na wysokości 2000 ft

METAR: AYPY 261300Z 12009KT 9999 FEW020 26/25 Q1010

czas: 05:05 (19:05 UTC)

Prognoza

Raport powstał 2 godziny i 5 minut temu, godzina 17:00 UTC
Prognoza ważna od 26 godzina 18 UTC do 27 godzina 18 UTC
Wiatr 5 kt od północny zachód
Widzialność 10 km lub więcej
Mało chmury na wysokości 2500 ft
Przerywane chmury na wysokości 8000 ft
Od 27 godzina 0000 UTC
Wiatr 16 kt od południowo-południowy wschód
Widzialność 10 km lub więcej
Rozproszone chmury na wysokości 3000 ft

TAF: AYPY 261700Z 2618/2718 32005KT 9999 FEW025 BKN080 FM270000 15016KT 9999 SCT030

Obserwacja i prognoza pogody dla ponad 4000 lotnisk (raport METAR i TAF).

Dostępne stacje oznaczono żółtymi i czerwonymi punktami na mapie.

Najedź kursorem aby zobaczyć nazwę stacji.

Kliknij aby zobaczyć obserwacje i prognozy pogody.

Aby zmienić mapę: kliknij na zielony przycisk z czarnym krzyżykiem, aby powiększyć; na zielony przycisk z myślnikiem, aby pomniejszyć; na zielone strzałki, aby przejść do map sąsiednich.


METAR-TAF: